sensor_id;sensor_type;location;lat;lon;timestamp;pressure;altitude;pressure_sealevel;temperature;humidity
48800;BME280;34611;47.964;7.982;2023-04-25T00:04:52;96232.94;;;11.50;65.04
48800;BME280;34611;47.964;7.982;2023-04-25T00:11:52;96243.50;;;11.48;64.88
48800;BME280;34611;47.964;7.982;2023-04-25T00:18:52;96252.81;;;11.51;65.04
48800;BME280;34611;47.964;7.982;2023-04-25T00:25:53;96258.97;;;11.50;64.91
48800;BME280;34611;47.964;7.982;2023-04-25T00:32:53;96252.81;;;11.51;65.00
48800;BME280;34611;47.964;7.982;2023-04-25T00:39:54;96241.59;;;11.50;65.02
48800;BME280;34611;47.964;7.982;2023-04-25T00:46:56;96248.56;;;11.50;65.07
48800;BME280;34611;47.964;7.982;2023-04-25T00:53:56;96236.53;;;11.49;65.06
48800;BME280;34611;47.964;7.982;2023-04-25T01:00:56;96229.53;;;11.49;65.00
48800;BME280;34611;47.964;7.982;2023-04-25T01:07:57;96226.78;;;11.51;64.86
48800;BME280;34611;47.964;7.982;2023-04-25T01:14:58;96220.91;;;11.49;64.78
48800;BME280;34611;47.964;7.982;2023-04-25T01:21:59;96220.75;;;11.50;64.80
48800;BME280;34611;47.964;7.982;2023-04-25T01:29:00;96218.31;;;11.49;64.68
48800;BME280;34611;47.964;7.982;2023-04-25T01:36:00;96209.38;;;11.51;64.73
48800;BME280;34611;47.964;7.982;2023-04-25T01:43:01;96214.72;;;11.50;64.98
48800;BME280;34611;47.964;7.982;2023-04-25T01:50:02;96211.97;;;11.51;64.95
48800;BME280;34611;47.964;7.982;2023-04-25T01:57:04;96197.34;;;11.50;64.77
48800;BME280;34611;47.964;7.982;2023-04-25T02:04:07;96200.75;;;11.51;64.94
48800;BME280;34611;47.964;7.982;2023-04-25T02:11:10;96204.31;;;11.50;64.93
48800;BME280;34611;47.964;7.982;2023-04-25T02:18:16;96191.28;;;11.50;64.82
48800;BME280;34611;47.964;7.982;2023-04-25T02:25:18;96192.28;;;11.49;64.88
48800;BME280;34611;47.964;7.982;2023-04-25T02:32:20;96181.88;;;11.49;64.95
48800;BME280;34611;47.964;7.982;2023-04-25T02:39:21;96186.09;;;11.50;64.85
48800;BME280;34611;47.964;7.982;2023-04-25T02:46:22;96188.69;;;11.50;64.75
48800;BME280;34611;47.964;7.982;2023-04-25T02:53:22;96179.13;;;11.50;64.80
48800;BME280;34611;47.964;7.982;2023-04-25T03:00:25;96165.25;;;11.50;64.98
48800;BME280;34611;47.964;7.982;2023-04-25T03:07:25;96168.84;;;11.49;64.82
48800;BME280;34611;47.964;7.982;2023-04-25T03:14:26;96155.50;;;11.52;64.70
48800;BME280;34611;47.964;7.982;2023-04-25T03:21:26;96162.66;;;11.50;65.01
48800;BME280;34611;47.964;7.982;2023-04-25T03:28:29;96147.03;;;11.50;64.92
48800;BME280;34611;47.964;7.982;2023-04-25T03:35:30;96143.63;;;11.49;64.86
48800;BME280;34611;47.964;7.982;2023-04-25T03:42:31;96127.06;;;11.50;64.90
48800;BME280;34611;47.964;7.982;2023-04-25T03:49:32;96115.00;;;11.49;64.73
48800;BME280;34611;47.964;7.982;2023-04-25T03:56:35;96113.22;;;11.50;64.89
48800;BME280;34611;47.964;7.982;2023-04-25T04:03:46;96099.38;;;11.49;64.94
48800;BME280;34611;47.964;7.982;2023-04-25T04:10:46;96100.19;;;11.50;64.82
48800;BME280;34611;47.964;7.982;2023-04-25T04:17:47;96101.84;;;11.51;64.77
48800;BME280;34611;47.964;7.982;2023-04-25T04:24:48;96101.03;;;11.50;64.75
48800;BME280;34611;47.964;7.982;2023-04-25T04:31:54;96100.19;;;11.50;64.79
48800;BME280;34611;47.964;7.982;2023-04-25T04:38:55;96095.00;;;11.50;64.81
48800;BME280;34611;47.964;7.982;2023-04-25T04:46:12;96095.81;;;11.50;64.80
48800;BME280;34611;47.964;7.982;2023-04-25T04:53:31;96104.44;;;11.51;64.80
48800;BME280;34611;47.964;7.982;2023-04-25T05:00:52;96109.66;;;11.51;64.91
48800;BME280;34611;47.964;7.982;2023-04-25T05:08:25;96105.41;;;11.50;64.79
48800;BME280;34611;47.964;7.982;2023-04-25T05:15:33;96106.25;;;11.50;64.75
48800;BME280;34611;47.964;7.982;2023-04-25T05:22:53;96111.59;;;11.49;64.85
48800;BME280;34611;47.964;7.982;2023-04-25T05:30:05;96115.81;;;11.50;64.62
48800;BME280;34611;47.964;7.982;2023-04-25T05:37:11;96121.84;;;11.50;64.62
48800;BME280;34611;47.964;7.982;2023-04-25T05:44:23;96135.81;;;11.49;64.86
48800;BME280;34611;47.964;7.982;2023-04-25T05:51:41;96140.06;;;11.50;64.58
48800;BME280;34611;47.964;7.982;2023-04-25T05:59:00;96134.03;;;11.50;64.84
48800;BME280;34611;47.964;7.982;2023-04-25T06:06:00;96162.66;;;11.50;64.70
48800;BME280;34611;47.964;7.982;2023-04-25T06:13:00;96167.88;;;11.50;64.77
48800;BME280;34611;47.964;7.982;2023-04-25T06:20:02;96186.09;;;11.50;64.87
48800;BME280;34611;47.964;7.982;2023-04-25T06:27:04;96187.06;;;11.49;64.62
48800;BME280;34611;47.964;7.982;2023-04-25T06:34:04;96193.09;;;11.49;64.84
48800;BME280;34611;47.964;7.982;2023-04-25T06:41:08;96204.31;;;11.50;64.71
48800;BME280;34611;47.964;7.982;2023-04-25T06:48:10;96207.06;;;11.48;64.55
48800;BME280;34611;47.964;7.982;2023-04-25T06:55:11;96205.28;;;11.49;64.80
48800;BME280;34611;47.964;7.982;2023-04-25T07:02:30;96205.28;;;11.49;64.75
48800;BME280;34611;47.964;7.982;2023-04-25T07:09:31;96219.91;;;11.50;64.76
48800;BME280;34611;47.964;7.982;2023-04-25T07:16:34;96225.13;;;11.50;64.64
48800;BME280;34611;47.964;7.982;2023-04-25T07:23:35;96232.28;;;11.48;64.86
48800;BME280;34611;47.964;7.982;2023-04-25T07:30:42;96244.31;;;11.49;64.53
48800;BME280;34611;47.964;7.982;2023-04-25T07:37:42;96244.19;;;11.50;64.73
48800;BME280;34611;47.964;7.982;2023-04-25T07:44:46;96253.94;;;11.48;64.59
48800;BME280;34611;47.964;7.982;2023-04-25T07:51:49;96271.97;;;11.50;64.67
48800;BME280;34611;47.964;7.982;2023-04-25T07:58:52;96275.56;;;11.49;64.75
48800;BME280;34611;47.964;7.982;2023-04-25T08:05:53;96291.19;;;11.49;64.67
48800;BME280;34611;47.964;7.982;2023-04-25T08:12:54;96315.59;;;11.48;64.58
48800;BME280;34611;47.964;7.982;2023-04-25T08:19:55;96322.53;;;11.47;64.82
48800;BME280;34611;47.964;7.982;2023-04-25T08:27:02;96331.03;;;11.49;64.65
48800;BME280;34611;47.964;7.982;2023-04-25T08:34:04;96348.44;;;11.49;64.84
48800;BME280;34611;47.964;7.982;2023-04-25T08:41:25;96358.84;;;11.49;64.75
48800;BME280;34611;47.964;7.982;2023-04-25T08:48:29;96369.25;;;11.49;64.64
48800;BME280;34611;47.964;7.982;2023-04-25T08:55:32;96374.47;;;11.49;64.55
48800;BME280;34611;47.964;7.982;2023-04-25T09:02:33;96379.66;;;11.49;64.73
48800;BME280;34611;47.964;7.982;2023-04-25T09:09:35;96391.06;;;11.48;64.77
48800;BME280;34611;47.964;7.982;2023-04-25T09:16:37;96403.09;;;11.49;64.83
48800;BME280;34611;47.964;7.982;2023-04-25T09:24:15;96407.50;;;11.48;64.74
48800;BME280;34611;47.964;7.982;2023-04-25T09:31:22;96415.31;;;11.48;64.69
48800;BME280;34611;47.964;7.982;2023-04-25T09:38:23;96418.72;;;11.49;64.79
48800;BME280;34611;47.964;7.982;2023-04-25T09:45:31;96430.09;;;11.48;64.60
48800;BME280;34611;47.964;7.982;2023-04-25T09:52:32;96440.34;;;11.49;64.66
48800;BME280;34611;47.964;7.982;2023-04-25T09:59:50;96449.94;;;11.49;64.77
48800;BME280;34611;47.964;7.982;2023-04-25T10:06:51;96462.16;;;11.48;64.70
48800;BME280;34611;47.964;7.982;2023-04-25T10:13:53;96454.47;;;11.47;64.74
48800;BME280;34611;47.964;7.982;2023-04-25T10:21:04;96466.53;;;11.48;64.80
48800;BME280;34611;47.964;7.982;2023-04-25T10:28:04;96462.97;;;11.49;64.67
48800;BME280;34611;47.964;7.982;2023-04-25T10:42:11;96457.91;;;11.47;64.81
48800;BME280;34611;47.964;7.982;2023-04-25T10:49:15;96457.91;;;11.47;64.79
48800;BME280;34611;47.964;7.982;2023-04-25T10:56:36;96461.34;;;11.48;64.65
48800;BME280;34611;47.964;7.982;2023-04-25T11:03:40;96460.34;;;11.49;64.77
48800;BME280;34611;47.964;7.982;2023-04-25T11:10:41;96473.38;;;11.49;64.82
48800;BME280;34611;47.964;7.982;2023-04-25T11:17:42;96471.75;;;11.48;64.67
48800;BME280;34611;47.964;7.982;2023-04-25T11:24:43;96470.78;;;11.49;64.74
48800;BME280;34611;47.964;7.982;2023-04-25T11:31:44;96455.16;;;11.49;64.83
48800;BME280;34611;47.964;7.982;2023-04-25T11:38:45;96449.28;;;11.47;64.82
48800;BME280;34611;47.964;7.982;2023-04-25T11:45:46;96449.94;;;11.49;64.58
48800;BME280;34611;47.964;7.982;2023-04-25T11:52:47;96436.94;;;11.49;64.84
48800;BME280;34611;47.964;7.982;2023-04-25T11:59:48;96449.13;;;11.48;64.78
48800;BME280;34611;47.964;7.982;2023-04-25T12:06:52;96456.94;;;11.48;64.77
48800;BME280;34611;47.964;7.982;2023-04-25T12:13:52;96477.78;;;11.48;64.91
48800;BME280;34611;47.964;7.982;2023-04-25T12:20:54;96494.19;;;11.49;64.87
48800;BME280;34611;47.964;7.982;2023-04-25T12:27:54;96489.00;;;11.49;64.83
48800;BME280;34611;47.964;7.982;2023-04-25T12:34:54;96491.72;;;11.47;64.62
48800;BME280;34611;47.964;7.982;2023-04-25T12:41:55;96478.59;;;11.49;64.93
48800;BME280;34611;47.964;7.982;2023-04-25T12:48:55;96482.16;;;11.48;64.78
48800;BME280;34611;47.964;7.982;2023-04-25T12:55:56;96486.38;;;11.49;64.84
48800;BME280;34611;47.964;7.982;2023-04-25T13:02:57;96485.41;;;11.50;64.85
48800;BME280;34611;47.964;7.982;2023-04-25T13:09:57;96477.78;;;11.48;64.64
48800;BME280;34611;47.964;7.982;2023-04-25T13:16:57;96479.41;;;11.49;64.66
48800;BME280;34611;47.964;7.982;2023-04-25T13:23:58;96475.97;;;11.49;64.90
48800;BME280;34611;47.964;7.982;2023-04-25T13:30:58;96464.75;;;11.48;64.87
48800;BME280;34611;47.964;7.982;2023-04-25T13:37:59;96469.78;;;11.50;64.67
48800;BME280;34611;47.964;7.982;2023-04-25T13:45:00;96461.97;;;11.50;64.85
48800;BME280;34611;47.964;7.982;2023-04-25T13:52:00;96475.84;;;11.50;64.95
48800;BME280;34611;47.964;7.982;2023-04-25T13:59:00;96497.47;;;11.51;64.85
48800;BME280;34611;47.964;7.982;2023-04-25T14:06:01;96511.44;;;11.50;64.82
48800;BME280;34611;47.964;7.982;2023-04-25T14:13:01;96514.03;;;11.50;64.82
48800;BME280;34611;47.964;7.982;2023-04-25T14:20:03;96517.50;;;11.50;64.91
48800;BME280;34611;47.964;7.982;2023-04-25T14:27:05;96520.91;;;11.51;64.72
48800;BME280;34611;47.964;7.982;2023-04-25T14:34:06;96507.22;;;11.49;64.92
48800;BME280;34611;47.964;7.982;2023-04-25T14:41:06;96499.41;;;11.49;64.87
48800;BME280;34611;47.964;7.982;2023-04-25T14:48:06;96502.00;;;11.49;64.69
48800;BME280;34611;47.964;7.982;2023-04-25T14:55:07;96503.63;;;11.50;64.86
48800;BME280;34611;47.964;7.982;2023-04-25T15:02:08;96499.41;;;11.49;64.74
48800;BME280;34611;47.964;7.982;2023-04-25T15:09:08;96506.22;;;11.50;64.85
48800;BME280;34611;47.964;7.982;2023-04-25T15:16:10;96501.88;;;11.50;64.76
48800;BME280;34611;47.964;7.982;2023-04-25T15:23:11;96508.03;;;11.49;64.92
48800;BME280;34611;47.964;7.982;2023-04-25T15:30:12;96521.84;;;11.50;64.65
48800;BME280;34611;47.964;7.982;2023-04-25T15:37:15;96554.75;;;11.51;64.67
48800;BME280;34611;47.964;7.982;2023-04-25T15:44:15;96557.34;;;11.51;65.00
48800;BME280;34611;47.964;7.982;2023-04-25T15:51:15;96574.75;;;11.50;64.86
48800;BME280;34611;47.964;7.982;2023-04-25T15:58:16;96575.69;;;11.49;64.72
48800;BME280;34611;47.964;7.982;2023-04-25T16:05:16;96579.13;;;11.50;64.94
48800;BME280;34611;47.964;7.982;2023-04-25T16:12:17;96580.09;;;11.49;64.93
48800;BME280;34611;47.964;7.982;2023-04-25T16:19:17;96584.31;;;11.50;64.95
48800;BME280;34611;47.964;7.982;2023-04-25T16:26:17;96586.94;;;11.50;64.77
48800;BME280;34611;47.964;7.982;2023-04-25T16:33:18;96592.97;;;11.50;64.86
48800;BME280;34611;47.964;7.982;2023-04-25T16:40:18;96581.72;;;11.50;64.87
48800;BME280;34611;47.964;7.982;2023-04-25T16:47:18;96595.59;;;11.50;64.73
48800;BME280;34611;47.964;7.982;2023-04-25T16:54:19;96593.22;;;11.57;64.56
48800;BME280;34611;47.964;7.982;2023-04-25T17:01:19;96600.50;;;11.53;65.11
48800;BME280;34611;47.964;7.982;2023-04-25T17:08:20;96612.00;;;11.51;65.01
48800;BME280;34611;47.964;7.982;2023-04-25T17:15:21;96628.44;;;11.51;65.02
48800;BME280;34611;47.964;7.982;2023-04-25T17:22:21;96637.22;;;11.50;65.13
48800;BME280;34611;47.964;7.982;2023-04-25T17:29:22;96631.88;;;11.52;64.91
48800;BME280;34611;47.964;7.982;2023-04-25T17:36:26;96629.25;;;11.52;64.86
48800;BME280;34611;47.964;7.982;2023-04-25T17:43:26;96639.84;;;11.50;64.96
48800;BME280;34611;47.964;7.982;2023-04-25T17:50:27;96644.06;;;11.51;64.98
48800;BME280;34611;47.964;7.982;2023-04-25T17:57:27;96655.44;;;11.50;64.83
48800;BME280;34611;47.964;7.982;2023-04-25T18:04:28;96644.19;;;11.50;65.05
48800;BME280;34611;47.964;7.982;2023-04-25T18:11:28;96648.47;;;11.51;64.99
48800;BME280;34611;47.964;7.982;2023-04-25T18:18:28;96648.47;;;11.51;64.88
48800;BME280;34611;47.964;7.982;2023-04-25T18:25:32;96658.88;;;11.51;64.86
48800;BME280;34611;47.964;7.982;2023-04-25T18:32:32;96671.47;;;11.65;64.61
48800;BME280;34611;47.964;7.982;2023-04-25T18:39:33;96673.38;;;11.53;65.17
48800;BME280;34611;47.964;7.982;2023-04-25T18:46:33;96689.97;;;11.52;65.20
48800;BME280;34611;47.964;7.982;2023-04-25T18:53:34;96698.59;;;11.53;64.85
48800;BME280;34611;47.964;7.982;2023-04-25T19:00:34;96713.41;;;11.52;65.04
48800;BME280;34611;47.964;7.982;2023-04-25T19:07:36;96711.63;;;11.53;64.95
48800;BME280;34611;47.964;7.982;2023-04-25T19:14:36;96718.75;;;11.51;64.87
48800;BME280;34611;47.964;7.982;2023-04-25T19:21:37;96722.16;;;11.51;65.04
48800;BME280;34611;47.964;7.982;2023-04-25T19:28:37;96722.97;;;11.52;65.06
48800;BME280;34611;47.964;7.982;2023-04-25T19:35:38;96732.56;;;11.51;65.02
48800;BME280;34611;47.964;7.982;2023-04-25T19:42:38;96740.38;;;11.51;65.05
48800;BME280;34611;47.964;7.982;2023-04-25T19:49:38;96743.78;;;11.52;64.88
48800;BME280;34611;47.964;7.982;2023-04-25T19:56:38;96740.38;;;11.51;64.96
48800;BME280;34611;47.964;7.982;2023-04-25T20:03:39;96754.22;;;11.52;65.04
48800;BME280;34611;47.964;7.982;2023-04-25T20:10:39;96747.38;;;11.51;65.03
48800;BME280;34611;47.964;7.982;2023-04-25T20:17:39;96753.41;;;11.51;64.92
48800;BME280;34611;47.964;7.982;2023-04-25T20:24:42;96757.78;;;11.51;64.96
48800;BME280;34611;47.964;7.982;2023-04-25T20:31:43;96752.59;;;11.51;65.03
48800;BME280;34611;47.964;7.982;2023-04-25T20:38:43;96757.78;;;11.51;64.82
48800;BME280;34611;47.964;7.982;2023-04-25T20:45:43;96763.00;;;11.51;64.97
48800;BME280;34611;47.964;7.982;2023-04-25T20:52:43;96752.44;;;11.52;65.07
48800;BME280;34611;47.964;7.982;2023-04-25T20:59:44;96735.31;;;11.50;65.07
48800;BME280;34611;47.964;7.982;2023-04-25T21:06:44;96743.13;;;11.50;64.88
48800;BME280;34611;47.964;7.982;2023-04-25T21:13:44;96747.38;;;11.51;64.97
48800;BME280;34611;47.964;7.982;2023-04-25T21:20:45;96773.41;;;11.51;64.94
48800;BME280;34611;47.964;7.982;2023-04-25T21:27:49;96786.41;;;11.51;64.92
48800;BME280;34611;47.964;7.982;2023-04-25T21:34:49;96783.81;;;11.51;64.81
48800;BME280;34611;47.964;7.982;2023-04-25T21:41:50;96785.59;;;11.50;64.97
48800;BME280;34611;47.964;7.982;2023-04-25T21:48:50;96785.59;;;11.50;64.88
48800;BME280;34611;47.964;7.982;2023-04-25T21:55:50;96797.78;;;11.50;64.84
48800;BME280;34611;47.964;7.982;2023-04-25T22:02:51;96793.25;;;11.52;64.92
48800;BME280;34611;47.964;7.982;2023-04-25T22:09:51;96792.56;;;11.50;65.09
48800;BME280;34611;47.964;7.982;2023-04-25T22:16:52;96782.03;;;11.51;64.95
48800;BME280;34611;47.964;7.982;2023-04-25T22:23:53;96791.63;;;11.51;65.03
48800;BME280;34611;47.964;7.982;2023-04-25T22:30:55;96795.03;;;11.51;64.98
48800;BME280;34611;47.964;7.982;2023-04-25T22:37:56;96796.72;;;11.52;64.90
48800;BME280;34611;47.964;7.982;2023-04-25T22:44:58;96795.88;;;11.52;64.79
48800;BME280;34611;47.964;7.982;2023-04-25T22:51:58;96794.22;;;11.51;64.84
48800;BME280;34611;47.964;7.982;2023-04-25T22:58:58;96802.03;;;11.51;65.00
48800;BME280;34611;47.964;7.982;2023-04-25T23:05:59;96798.63;;;11.50;64.94
48800;BME280;34611;47.964;7.982;2023-04-25T23:12:59;96802.97;;;11.50;64.87
48800;BME280;34611;47.964;7.982;2023-04-25T23:20:00;96806.44;;;11.50;64.94
48800;BME280;34611;47.964;7.982;2023-04-25T23:27:00;96818.47;;;11.51;64.88
48800;BME280;34611;47.964;7.982;2023-04-25T23:34:01;96822.88;;;11.51;64.85
48800;BME280;34611;47.964;7.982;2023-04-25T23:41:01;96824.66;;;11.50;64.84
48800;BME280;34611;47.964;7.982;2023-04-25T23:48:02;96824.66;;;11.50;64.79
48800;BME280;34611;47.964;7.982;2023-04-25T23:55:02;96822.06;;;11.50;65.01
